createdAt,value
2023-02-02T00:01:21.759Z,7.05
2023-02-02T00:03:50.990Z,7.02
2023-02-02T00:06:20.660Z,7.01
2023-02-02T00:08:48.058Z,7.00
2023-02-02T00:11:15.302Z,7.01
2023-02-02T00:13:42.135Z,7.00
2023-02-02T00:16:27.190Z,6.99
2023-02-02T00:18:56.752Z,7.00
2023-02-02T00:21:24.424Z,6.99
2023-02-02T00:23:51.798Z,6.99
2023-02-02T00:26:19.239Z,6.98
2023-02-02T00:28:46.224Z,6.98
2023-02-02T00:31:12.924Z,6.97
2023-02-02T00:33:41.290Z,6.95
2023-02-02T00:36:08.341Z,6.93
2023-02-02T00:38:35.122Z,6.92
2023-02-02T00:41:01.626Z,6.92
2023-02-02T00:43:28.154Z,6.94
2023-02-02T00:45:54.827Z,6.92
2023-02-02T00:48:21.400Z,6.92
2023-02-02T00:50:48.170Z,6.92
2023-02-02T00:53:14.812Z,6.91
2023-02-02T00:55:41.286Z,6.91
2023-02-02T00:58:07.747Z,6.92
2023-02-02T01:00:34.321Z,6.92
2023-02-02T01:03:04.610Z,6.93
2023-02-02T01:05:32.008Z,6.91
2023-02-02T01:07:58.550Z,6.92
2023-02-02T01:10:25.203Z,6.89
2023-02-02T01:12:52.075Z,6.88
2023-02-02T01:15:18.858Z,6.88
2023-02-02T01:17:45.485Z,6.86
2023-02-02T01:20:19.479Z,6.84
2023-02-02T01:22:47.289Z,6.81
2023-02-02T01:25:14.309Z,6.79
2023-02-02T01:27:40.936Z,6.78
2023-02-02T01:30:08.410Z,6.77
2023-02-02T01:32:34.879Z,6.73
2023-02-02T01:35:01.421Z,6.72
2023-02-02T01:37:28.025Z,6.71
2023-02-02T01:39:54.471Z,6.71
2023-02-02T01:42:22.624Z,6.70
2023-02-02T01:45:19.397Z,6.71
2023-02-02T01:47:54.790Z,6.67
2023-02-02T01:50:26.123Z,6.65
2023-02-02T01:52:55.681Z,6.66
2023-02-02T01:55:25.321Z,6.63
2023-02-02T01:58:00.688Z,6.62
2023-02-02T02:00:27.867Z,6.62
2023-02-02T02:02:59.174Z,6.60
2023-02-02T02:05:32.743Z,6.58
2023-02-02T02:08:12.268Z,6.56
2023-02-02T02:10:39.067Z,6.54
2023-02-02T02:13:06.564Z,6.55
2023-02-02T02:16:00.500Z,6.54
2023-02-02T02:18:54.781Z,6.53
2023-02-02T02:21:49.221Z,6.54
2023-02-02T02:24:53.090Z,6.53
2023-02-02T02:27:44.516Z,6.52
2023-02-02T02:30:39.035Z,6.51
2023-02-02T02:33:21.898Z,6.52
2023-02-02T02:36:18.212Z,6.50
2023-02-02T02:38:54.595Z,6.52
2023-02-02T02:41:27.127Z,6.51
2023-02-02T02:44:02.462Z,6.51
2023-02-02T02:46:29.428Z,6.49
2023-02-02T02:49:00.744Z,6.49
2023-02-02T02:51:49.384Z,6.51
2023-02-02T02:54:22.438Z,6.49
2023-02-02T02:57:11.081Z,6.49
2023-02-02T02:59:44.509Z,6.49
2023-02-02T03:02:30.141Z,6.53
2023-02-02T03:05:15.958Z,6.52
2023-02-02T03:07:51.260Z,6.54
2023-02-02T03:10:20.607Z,6.57
2023-02-02T03:12:48.884Z,6.60
2023-02-02T03:15:17.571Z,6.61
2023-02-02T03:17:47.577Z,6.63
2023-02-02T03:20:14.358Z,6.64
2023-02-02T03:22:40.916Z,6.67
2023-02-02T03:25:11.072Z,6.66
2023-02-02T03:27:39.426Z,6.71
2023-02-02T03:30:09.157Z,6.73
2023-02-02T03:32:36.556Z,6.72
2023-02-02T03:35:03.939Z,6.76
2023-02-02T03:37:30.581Z,6.77
2023-02-02T03:39:57.219Z,6.80
2023-02-02T03:42:23.808Z,6.82
2023-02-02T03:44:50.347Z,6.81
2023-02-02T03:47:16.928Z,6.82
2023-02-02T03:49:43.667Z,6.85
2023-02-02T03:52:10.381Z,6.86
2023-02-02T03:54:36.939Z,6.88
2023-02-02T03:57:03.525Z,6.89
2023-02-02T03:59:30.240Z,6.92
2023-02-02T04:01:56.944Z,6.92
2023-02-02T04:04:23.632Z,6.93
2023-02-02T04:06:50.343Z,6.94
2023-02-02T04:09:16.931Z,6.95
2023-02-02T04:11:43.494Z,6.94
2023-02-02T04:14:10.572Z,6.96
2023-02-02T04:16:37.910Z,6.95
2023-02-02T04:19:04.942Z,6.98
2023-02-02T04:21:31.553Z,6.99
2023-02-02T04:23:58.137Z,7.01
2023-02-02T04:26:26.287Z,7.04
2023-02-02T04:28:53.769Z,7.05
2023-02-02T04:31:20.577Z,7.05
2023-02-02T04:33:47.324Z,7.07
2023-02-02T04:36:14.297Z,7.08
2023-02-02T04:38:40.867Z,7.10
2023-02-02T04:41:09.459Z,7.09
2023-02-02T04:43:37.674Z,7.10
2023-02-02T04:46:04.839Z,7.13
2023-02-02T04:48:31.872Z,7.14
2023-02-02T04:51:00.382Z,7.16
2023-02-02T04:53:27.398Z,7.18
2023-02-02T04:55:53.956Z,7.18
2023-02-02T04:58:20.507Z,7.19
2023-02-02T05:00:47.177Z,7.20
2023-02-02T05:03:13.734Z,7.22
2023-02-02T05:05:40.324Z,7.25
2023-02-02T05:08:08.339Z,7.26
2023-02-02T05:10:34.912Z,7.27
2023-02-02T05:13:01.578Z,7.26
2023-02-02T05:15:28.251Z,7.27
2023-02-02T05:17:54.818Z,7.27
2023-02-02T05:20:21.411Z,7.28
2023-02-02T05:22:51.045Z,7.30
2023-02-02T05:25:18.191Z,7.31
2023-02-02T05:27:45.793Z,7.29
2023-02-02T05:30:14.259Z,7.30
2023-02-02T05:32:41.480Z,7.27
2023-02-02T05:35:10.299Z,7.26
2023-02-02T05:37:36.931Z,7.25
2023-02-02T05:40:04.232Z,7.25
2023-02-02T05:42:30.904Z,7.26
2023-02-02T05:44:57.481Z,7.25
2023-02-02T05:47:24.044Z,7.24
2023-02-02T05:49:50.644Z,7.24
2023-02-02T05:52:20.700Z,7.25
2023-02-02T05:54:47.270Z,7.24
2023-02-02T05:57:13.909Z,7.25
2023-02-02T05:59:40.425Z,7.25
2023-02-02T06:02:07.191Z,7.22
2023-02-02T06:04:33.779Z,7.22
2023-02-02T06:07:00.277Z,7.20
2023-02-02T06:09:26.732Z,7.21
2023-02-02T06:11:53.303Z,7.18
2023-02-02T06:14:19.977Z,7.15
2023-02-02T06:16:46.701Z,7.14
2023-02-02T06:19:13.327Z,7.14
2023-02-02T06:21:39.927Z,7.11
2023-02-02T06:24:07.178Z,7.10
2023-02-02T06:26:33.851Z,7.09
2023-02-02T06:29:00.434Z,7.07
2023-02-02T06:31:27.147Z,7.06
2023-02-02T06:33:58.782Z,7.06
2023-02-02T06:36:27.183Z,7.03
2023-02-02T06:38:55.675Z,7.03
2023-02-02T06:41:22.619Z,7.03
2023-02-02T06:43:49.399Z,7.03
2023-02-02T06:46:16.646Z,7.02
2023-02-02T06:48:43.259Z,7.02
2023-02-02T06:51:09.801Z,7.00
2023-02-02T06:53:36.399Z,7.01
2023-02-02T06:56:05.583Z,6.99
2023-02-02T06:58:33.673Z,6.99
2023-02-02T07:01:10.000Z,6.99
2023-02-02T07:03:37.091Z,6.98
2023-02-02T07:06:24.217Z,6.96
2023-02-02T07:09:01.191Z,6.96
2023-02-02T07:11:30.871Z,6.95
2023-02-02T07:13:57.920Z,6.95
2023-02-02T07:16:24.685Z,6.94
2023-02-02T07:18:51.278Z,6.96
2023-02-02T07:21:20.210Z,6.95
2023-02-02T07:23:47.492Z,6.95
2023-02-02T07:26:15.300Z,6.95
2023-02-02T07:28:42.661Z,6.95
2023-02-02T07:31:21.352Z,6.95
2023-02-02T07:33:48.660Z,6.95
2023-02-02T07:36:18.676Z,6.99
2023-02-02T07:38:47.210Z,7.05
2023-02-02T07:41:15.140Z,7.10
2023-02-02T07:43:42.293Z,7.17
2023-02-02T07:46:12.934Z,7.24
2023-02-02T07:48:40.955Z,7.29
2023-02-02T07:51:11.218Z,7.40
2023-02-02T07:53:37.823Z,7.48
2023-02-02T07:56:18.942Z,7.54
2023-02-02T07:58:45.745Z,7.63
2023-02-02T08:01:14.762Z,7.69
2023-02-02T08:03:42.995Z,7.76
2023-02-02T08:06:16.025Z,7.84
2023-02-02T08:08:42.716Z,7.86
2023-02-02T08:11:11.488Z,7.94
2023-02-02T08:13:39.342Z,7.97
2023-02-02T08:16:06.846Z,8.01
2023-02-02T08:18:34.920Z,8.05
2023-02-02T08:21:02.802Z,8.10
2023-02-02T08:23:29.581Z,8.14
2023-02-02T08:26:11.427Z,8.13
2023-02-02T08:28:39.490Z,8.20
2023-02-02T08:31:16.614Z,8.26
2023-02-02T08:33:43.771Z,8.25
2023-02-02T08:36:19.586Z,8.32
2023-02-02T08:38:47.094Z,8.33
2023-02-02T08:41:18.141Z,8.35
2023-02-02T08:43:45.008Z,8.39
2023-02-02T08:46:14.686Z,8.33
2023-02-02T08:48:41.841Z,8.39
2023-02-02T08:51:11.951Z,8.43
2023-02-02T08:53:39.051Z,8.53
2023-02-02T08:56:10.360Z,8.58
2023-02-02T08:58:37.132Z,8.60
2023-02-02T09:01:06.285Z,8.64
2023-02-02T09:03:34.916Z,8.67
2023-02-02T09:06:06.833Z,8.57
2023-02-02T09:08:34.400Z,8.70
2023-02-02T09:11:07.811Z,8.75
2023-02-02T09:13:35.882Z,8.81
2023-02-02T09:16:05.190Z,8.85
2023-02-02T09:18:32.676Z,8.87
2023-02-02T09:21:01.587Z,8.90
2023-02-02T09:23:33.320Z,8.96
2023-02-02T09:26:19.838Z,8.99
2023-02-02T09:28:52.054Z,9.00
2023-02-02T09:31:19.051Z,9.05
2023-02-02T09:33:45.963Z,9.07
2023-02-02T09:36:17.537Z,9.05
2023-02-02T09:38:44.627Z,9.04
2023-02-02T09:41:26.253Z,9.05
2023-02-02T09:44:12.185Z,9.11
2023-02-02T09:47:20.042Z,9.16
2023-02-02T09:50:04.349Z,9.13
2023-02-02T09:52:44.510Z,9.20
2023-02-02T09:55:13.920Z,9.19
2023-02-02T09:57:48.961Z,9.22
2023-02-02T10:00:30.707Z,9.17
2023-02-02T10:03:04.448Z,9.22
2023-02-02T10:05:47.583Z,9.21
2023-02-02T10:08:34.311Z,9.21
2023-02-02T10:11:22.910Z,9.26
2023-02-02T10:13:53.084Z,9.27
2023-02-02T10:16:22.468Z,9.33
2023-02-02T10:18:57.896Z,9.34
2023-02-02T10:21:40.346Z,9.31
2023-02-02T10:24:17.952Z,9.29
2023-02-02T10:26:51.815Z,9.25
2023-02-02T10:29:48.596Z,9.34
2023-02-02T10:32:23.870Z,9.41
2023-02-02T10:35:21.930Z,9.40
2023-02-02T10:38:10.032Z,9.43
2023-02-02T10:40:47.770Z,9.45
2023-02-02T10:43:46.475Z,9.53
2023-02-02T10:46:24.048Z,9.41
2023-02-02T10:48:52.941Z,9.43
2023-02-02T10:51:28.360Z,9.51
2023-02-02T10:53:58.958Z,9.51
2023-02-02T10:56:54.035Z,9.55
2023-02-02T10:59:32.019Z,9.50
2023-02-02T11:02:08.714Z,9.49
2023-02-02T11:05:00.812Z,9.51
2023-02-02T11:07:27.384Z,9.52
2023-02-02T11:09:54.336Z,9.54
2023-02-02T11:12:34.959Z,9.59
2023-02-02T11:15:22.433Z,9.61
2023-02-02T11:17:48.961Z,9.55
2023-02-02T11:20:24.868Z,9.62
2023-02-02T11:23:02.025Z,9.65
2023-02-02T11:25:35.297Z,9.65
2023-02-02T11:28:18.826Z,9.69
2023-02-02T11:30:52.532Z,9.66
2023-02-02T11:33:28.489Z,9.71
2023-02-02T11:36:06.735Z,9.72
2023-02-02T11:38:33.612Z,9.77
2023-02-02T11:41:11.163Z,9.81
2023-02-02T11:43:41.900Z,9.81
2023-02-02T11:46:20.773Z,9.80
2023-02-02T11:48:54.572Z,9.79
2023-02-02T11:51:24.166Z,9.81
2023-02-02T11:54:07.524Z,9.86
2023-02-02T11:56:36.925Z,9.89
2023-02-02T11:59:04.019Z,9.90
2023-02-02T12:01:41.059Z,9.92
2023-02-02T12:04:16.215Z,9.89
2023-02-02T12:06:43.400Z,9.90
2023-02-02T12:09:23.619Z,9.96
2023-02-02T12:12:22.157Z,9.92
2023-02-02T12:14:55.469Z,9.94
2023-02-02T12:17:33.139Z,9.92
2023-02-02T12:20:36.779Z,9.89
2023-02-02T12:23:40.193Z,9.85
2023-02-02T12:26:22.505Z,9.81
2023-02-02T12:29:26.943Z,9.87
2023-02-02T12:32:05.523Z,9.81
2023-02-02T12:34:53.662Z,9.79
2023-02-02T12:37:41.240Z,9.79
2023-02-02T12:40:47.724Z,9.84
2023-02-02T12:43:41.976Z,9.78
2023-02-02T12:46:33.861Z,9.82
2023-02-02T12:49:22.284Z,9.78
2023-02-02T12:52:02.621Z,9.77
2023-02-02T12:54:52.110Z,9.77
2023-02-02T12:58:05.145Z,9.75
2023-02-02T13:01:03.349Z,9.72
2023-02-02T13:04:00.382Z,9.68
2023-02-02T13:07:04.696Z,9.67
2023-02-02T13:09:48.706Z,9.64
2023-02-02T13:12:19.954Z,9.62
2023-02-02T13:14:57.878Z,9.61
2023-02-02T13:17:33.948Z,9.57
2023-02-02T13:20:11.652Z,9.52
2023-02-02T13:22:43.037Z,9.49
2023-02-02T13:25:23.396Z,9.48
2023-02-02T13:27:54.908Z,9.46
2023-02-02T13:30:26.994Z,9.45
2023-02-02T13:32:58.219Z,9.41
2023-02-02T13:35:35.444Z,9.40
2023-02-02T13:38:18.053Z,9.37
2023-02-02T13:40:44.838Z,9.34
2023-02-02T13:43:22.603Z,9.35
2023-02-02T13:46:29.650Z,9.34
2023-02-02T13:49:13.482Z,9.33
2023-02-02T13:51:54.046Z,9.29
2023-02-02T13:55:09.525Z,9.30
2023-02-02T13:57:53.053Z,9.29
2023-02-02T14:00:21.731Z,9.27
2023-02-02T14:02:52.280Z,9.26
2023-02-02T14:05:28.937Z,9.27
2023-02-02T14:08:04.776Z,9.24
2023-02-02T14:10:38.363Z,9.23
2023-02-02T14:13:36.255Z,9.23
2023-02-02T14:16:07.184Z,9.21
2023-02-02T14:18:52.221Z,9.22
2023-02-02T14:21:38.342Z,9.21
2023-02-02T14:24:26.479Z,9.26
2023-02-02T14:27:21.601Z,9.24
2023-02-02T14:29:48.163Z,9.20
2023-02-02T14:32:27.934Z,9.19
2023-02-02T14:35:01.335Z,9.20
2023-02-02T14:37:38.496Z,9.21
2023-02-02T14:40:32.331Z,9.24
2023-02-02T14:43:42.652Z,9.19
2023-02-02T14:46:15.187Z,9.16
2023-02-02T14:49:07.029Z,9.16
2023-02-02T14:51:45.928Z,9.11
2023-02-02T14:54:22.086Z,9.11
2023-02-02T14:56:54.156Z,9.11
2023-02-02T14:59:30.127Z,9.09
2023-02-02T15:02:15.271Z,9.08
2023-02-02T15:04:42.568Z,9.06
2023-02-02T15:07:37.300Z,9.07
2023-02-02T15:10:04.621Z,9.08
2023-02-02T15:12:45.864Z,9.05
2023-02-02T15:15:30.259Z,9.02
2023-02-02T15:18:13.210Z,9.03
2023-02-02T15:20:49.845Z,9.06
2023-02-02T15:23:40.468Z,9.06
2023-02-02T15:26:15.136Z,9.05
2023-02-02T15:28:41.688Z,9.08
2023-02-02T15:31:32.634Z,9.12
2023-02-02T15:34:14.390Z,9.13
2023-02-02T15:36:45.453Z,9.10
2023-02-02T15:39:30.003Z,9.11
2023-02-02T15:42:17.215Z,9.10
2023-02-02T15:44:44.067Z,9.14
2023-02-02T15:47:17.010Z,9.14
2023-02-02T15:49:45.410Z,9.14
2023-02-02T15:52:18.942Z,9.15
2023-02-02T15:54:58.498Z,9.13
2023-02-02T15:57:36.549Z,9.15
2023-02-02T16:00:29.313Z,9.15
2023-02-02T16:03:14.624Z,9.10
2023-02-02T16:05:52.376Z,9.10
2023-02-02T16:08:38.714Z,9.11
2023-02-02T16:11:09.888Z,9.12
2023-02-02T16:13:38.957Z,9.09
2023-02-02T16:16:20.910Z,9.11
2023-02-02T16:19:01.975Z,9.12
2023-02-02T16:21:30.084Z,9.08
2023-02-02T16:24:01.872Z,9.11
2023-02-02T16:26:32.828Z,9.09
2023-02-02T16:28:59.716Z,9.10
2023-02-02T16:31:28.972Z,9.11
2023-02-02T16:33:57.034Z,9.10
2023-02-02T16:36:26.694Z,9.11
2023-02-02T16:38:57.437Z,9.10
2023-02-02T16:41:33.807Z,9.14
2023-02-02T16:44:31.800Z,9.15
2023-02-02T16:47:02.479Z,9.15
2023-02-02T16:49:30.662Z,9.17
2023-02-02T16:52:11.471Z,9.17
2023-02-02T16:54:42.620Z,9.15
2023-02-02T16:57:18.175Z,9.14
2023-02-02T16:59:49.932Z,9.14
2023-02-02T17:02:31.076Z,9.14
2023-02-02T17:05:17.742Z,9.16
2023-02-02T17:07:51.577Z,9.15
2023-02-02T17:10:23.305Z,9.14
2023-02-02T17:12:49.754Z,9.17
2023-02-02T17:15:29.020Z,9.17
2023-02-02T17:17:55.997Z,9.18
2023-02-02T17:20:23.108Z,9.16
2023-02-02T17:22:54.304Z,9.15
2023-02-02T17:25:29.405Z,9.15
2023-02-02T17:27:58.483Z,9.16
2023-02-02T17:30:25.760Z,9.16
2023-02-02T17:32:52.423Z,9.18
2023-02-02T17:35:22.514Z,9.20
2023-02-02T17:37:51.795Z,9.22
2023-02-02T17:40:20.412Z,9.22
2023-02-02T17:42:50.508Z,9.19
2023-02-02T17:45:28.673Z,9.21
2023-02-02T17:47:55.267Z,9.22
2023-02-02T17:50:22.019Z,9.24
2023-02-02T17:52:49.939Z,9.26
2023-02-02T17:55:23.020Z,9.28
2023-02-02T17:57:51.177Z,9.29
2023-02-02T18:00:20.948Z,9.31
2023-02-02T18:02:50.119Z,9.34
2023-02-02T18:05:17.242Z,9.34
2023-02-02T18:07:44.389Z,9.33
2023-02-02T18:10:13.799Z,9.35
2023-02-02T18:12:40.640Z,9.35
2023-02-02T18:15:11.099Z,9.37
2023-02-02T18:17:37.747Z,9.40
2023-02-02T18:20:05.274Z,9.40
2023-02-02T18:22:32.575Z,9.43
2023-02-02T18:24:59.131Z,9.46
2023-02-02T18:27:26.123Z,9.45
2023-02-02T18:29:52.744Z,9.47
2023-02-02T18:32:19.296Z,9.46
2023-02-02T18:34:47.607Z,9.47
2023-02-02T18:37:14.151Z,9.49
2023-02-02T18:39:40.859Z,9.47
2023-02-02T18:42:07.494Z,9.47
2023-02-02T18:44:36.381Z,9.48
2023-02-02T18:47:02.980Z,9.49
2023-02-02T18:49:29.742Z,9.51
2023-02-02T18:51:56.382Z,9.52
2023-02-02T18:54:23.592Z,9.51
2023-02-02T18:56:50.588Z,9.55
2023-02-02T18:59:17.541Z,9.51
2023-02-02T19:01:44.118Z,9.53
2023-02-02T19:04:11.179Z,9.51
2023-02-02T19:06:56.638Z,9.48
2023-02-02T19:09:24.760Z,9.47
2023-02-02T19:11:54.987Z,9.47
2023-02-02T19:14:27.476Z,9.42
2023-02-02T19:17:08.253Z,9.46
2023-02-02T19:19:35.160Z,9.46
2023-02-02T19:22:13.644Z,9.46
2023-02-02T19:24:40.552Z,9.47
2023-02-02T19:27:22.132Z,9.45
2023-02-02T19:29:51.132Z,9.42
2023-02-02T19:32:23.278Z,9.34
2023-02-02T19:34:52.460Z,9.33
2023-02-02T19:37:30.673Z,9.30
2023-02-02T19:40:25.098Z,9.27
2023-02-02T19:42:57.064Z,9.28
2023-02-02T19:45:31.672Z,9.27
2023-02-02T19:48:00.524Z,9.21
2023-02-02T19:50:38.793Z,9.21
2023-02-02T19:53:16.328Z,9.22
2023-02-02T19:55:44.402Z,9.25
2023-02-02T19:58:19.761Z,9.22
2023-02-02T20:00:47.976Z,9.26
2023-02-02T20:03:23.493Z,9.25
2023-02-02T20:05:51.720Z,9.17
2023-02-02T20:08:41.742Z,9.17
2023-02-02T20:11:32.118Z,9.15
2023-02-02T20:14:00.798Z,9.16
2023-02-02T20:16:43.032Z,9.16
2023-02-02T20:19:20.220Z,9.19
2023-02-02T20:21:50.056Z,9.13
2023-02-02T20:24:25.249Z,9.14
2023-02-02T20:26:54.667Z,9.14
2023-02-02T20:29:25.019Z,9.13
2023-02-02T20:31:54.056Z,9.13
2023-02-02T20:34:23.045Z,9.13
2023-02-02T20:36:50.941Z,9.15
2023-02-02T20:39:37.019Z,9.21
2023-02-02T20:42:04.762Z,9.23
2023-02-02T20:44:33.339Z,9.24
2023-02-02T20:47:00.574Z,9.23
2023-02-02T20:49:31.600Z,9.26
2023-02-02T20:52:01.872Z,9.25
2023-02-02T20:54:30.707Z,9.23
2023-02-02T20:56:57.952Z,9.26
2023-02-02T20:59:24.718Z,9.27
2023-02-02T21:01:52.511Z,9.27
2023-02-02T21:04:19.930Z,9.25
2023-02-02T21:06:48.840Z,9.25
2023-02-02T21:09:16.372Z,9.20
2023-02-02T21:11:43.632Z,9.16
2023-02-02T21:14:10.351Z,9.11
2023-02-02T21:16:37.012Z,9.07
2023-02-02T21:19:03.564Z,9.02
2023-02-02T21:21:30.157Z,8.96
2023-02-02T21:23:56.724Z,8.91
2023-02-02T21:26:27.351Z,8.88
2023-02-02T21:28:54.104Z,8.85
2023-02-02T21:31:20.787Z,8.83
2023-02-02T21:33:48.102Z,8.80
2023-02-02T21:36:37.186Z,8.77
2023-02-02T21:39:21.617Z,8.75
2023-02-02T21:41:58.029Z,8.73
2023-02-02T21:44:26.843Z,8.70
2023-02-02T21:46:53.824Z,8.67
2023-02-02T21:49:26.429Z,8.66
2023-02-02T21:51:57.946Z,8.64
2023-02-02T21:54:27.374Z,8.63
2023-02-02T21:56:54.832Z,8.61
2023-02-02T21:59:29.241Z,8.60
2023-02-02T22:01:55.803Z,8.59
2023-02-02T22:04:28.970Z,8.58
2023-02-02T22:07:12.590Z,8.58
2023-02-02T22:09:41.407Z,8.59
2023-02-02T22:12:17.144Z,8.59
2023-02-02T22:14:45.928Z,8.57
2023-02-02T22:17:23.531Z,8.57
2023-02-02T22:19:56.083Z,8.59
2023-02-02T22:22:25.503Z,8.59
2023-02-02T22:25:16.171Z,8.58
2023-02-02T22:27:45.858Z,8.59
2023-02-02T22:30:38.753Z,8.60
2023-02-02T22:33:06.804Z,8.61
2023-02-02T22:35:34.181Z,8.61
2023-02-02T22:38:01.539Z,8.61
2023-02-02T22:40:28.854Z,8.62
2023-02-02T22:42:57.878Z,8.62
2023-02-02T22:45:24.892Z,8.61
2023-02-02T22:47:51.645Z,8.61
2023-02-02T22:50:21.832Z,8.60
2023-02-02T22:52:48.909Z,8.60
2023-02-02T22:55:16.331Z,8.59
2023-02-02T22:57:43.176Z,8.58
2023-02-02T23:00:16.652Z,8.58
2023-02-02T23:02:43.594Z,8.58
2023-02-02T23:05:12.712Z,8.58
2023-02-02T23:07:40.109Z,8.56
2023-02-02T23:10:07.770Z,8.56
2023-02-02T23:12:35.081Z,8.56
2023-02-02T23:15:01.956Z,8.54
2023-02-02T23:17:28.522Z,8.52
2023-02-02T23:19:55.081Z,8.51
2023-02-02T23:22:21.868Z,8.49
2023-02-02T23:24:48.590Z,8.49
2023-02-02T23:27:15.478Z,8.49
2023-02-02T23:29:42.105Z,8.48
2023-02-02T23:32:08.729Z,8.49
2023-02-02T23:34:35.436Z,8.49
2023-02-02T23:37:02.006Z,8.48
2023-02-02T23:39:28.547Z,8.49
2023-02-02T23:41:55.076Z,8.50
2023-02-02T23:44:21.875Z,8.50
2023-02-02T23:46:49.562Z,8.50
2023-02-02T23:49:16.559Z,8.49
2023-02-02T23:51:43.664Z,8.49
2023-02-02T23:54:12.301Z,8.50
2023-02-02T23:56:40.080Z,8.52
2023-02-02T23:59:06.774Z,8.53
